sensor_id;sensor_type;location;lat;lon;timestamp;P1;durP1;ratioP1;P2;durP2;ratioP2
31368;SDS011;18004;48.416;10.066;2023-04-24T00:00:53;3.22;;;0.40;;
31368;SDS011;18004;48.416;10.066;2023-04-24T00:03:22;0.52;;;0.40;;
31368;SDS011;18004;48.416;10.066;2023-04-24T00:05:48;2.72;;;0.55;;
31368;SDS011;18004;48.416;10.066;2023-04-24T00:08:14;1.55;;;0.50;;
31368;SDS011;18004;48.416;10.066;2023-04-24T00:10:41;0.80;;;0.30;;
31368;SDS011;18004;48.416;10.066;2023-04-24T00:13:06;0.40;;;0.30;;
31368;SDS011;18004;48.416;10.066;2023-04-24T00:15:32;0.50;;;0.50;;
31368;SDS011;18004;48.416;10.066;2023-04-24T00:17:58;0.38;;;0.38;;
31368;SDS011;18004;48.416;10.066;2023-04-24T00:20:24;0.57;;;0.45;;
31368;SDS011;18004;48.416;10.066;2023-04-24T00:22:49;1.00;;;0.68;;
31368;SDS011;18004;48.416;10.066;2023-04-24T00:25:15;1.02;;;0.88;;
31368;SDS011;18004;48.416;10.066;2023-04-24T00:27:41;2.92;;;1.83;;
31368;SDS011;18004;48.416;10.066;2023-04-24T00:30:07;2.53;;;2.33;;
31368;SDS011;18004;48.416;10.066;2023-04-24T00:32:33;6.95;;;5.28;;
31368;SDS011;18004;48.416;10.066;2023-04-24T00:34:59;9.07;;;6.10;;
31368;SDS011;18004;48.416;10.066;2023-04-24T00:37:24;5.85;;;4.85;;
31368;SDS011;18004;48.416;10.066;2023-04-24T00:39:50;1.65;;;1.05;;
31368;SDS011;18004;48.416;10.066;2023-04-24T00:42:16;0.70;;;0.70;;
31368;SDS011;18004;48.416;10.066;2023-04-24T00:44:42;1.45;;;0.68;;
31368;SDS011;18004;48.416;10.066;2023-04-24T00:47:08;1.13;;;0.60;;
31368;SDS011;18004;48.416;10.066;2023-04-24T00:49:34;0.50;;;0.40;;
31368;SDS011;18004;48.416;10.066;2023-04-24T00:52:00;0.50;;;0.45;;
31368;SDS011;18004;48.416;10.066;2023-04-24T00:54:26;1.00;;;0.90;;
31368;SDS011;18004;48.416;10.066;2023-04-24T00:56:51;4.45;;;3.50;;
31368;SDS011;18004;48.416;10.066;2023-04-24T00:59:17;7.65;;;5.55;;
31368;SDS011;18004;48.416;10.066;2023-04-24T01:01:44;9.55;;;7.60;;
31368;SDS011;18004;48.416;10.066;2023-04-24T01:04:11;10.60;;;7.95;;
31368;SDS011;18004;48.416;10.066;2023-04-24T01:06:38;4.40;;;4.00;;
31368;SDS011;18004;48.416;10.066;2023-04-24T01:09:04;2.00;;;1.90;;
31368;SDS011;18004;48.416;10.066;2023-04-24T01:11:30;2.45;;;1.88;;
31368;SDS011;18004;48.416;10.066;2023-04-24T01:13:56;5.13;;;2.00;;
31368;SDS011;18004;48.416;10.066;2023-04-24T01:16:24;5.53;;;4.75;;
31368;SDS011;18004;48.416;10.066;2023-04-24T01:18:50;8.07;;;4.80;;
31368;SDS011;18004;48.416;10.066;2023-04-24T01:21:16;7.28;;;5.78;;
31368;SDS011;18004;48.416;10.066;2023-04-24T01:23:43;6.78;;;5.05;;
31368;SDS011;18004;48.416;10.066;2023-04-24T01:26:09;6.50;;;5.32;;
31368;SDS011;18004;48.416;10.066;2023-04-24T01:28:36;7.57;;;5.07;;
31368;SDS011;18004;48.416;10.066;2023-04-24T01:31:02;11.70;;;5.13;;
31368;SDS011;18004;48.416;10.066;2023-04-24T01:33:28;11.95;;;5.20;;
31368;SDS011;18004;48.416;10.066;2023-04-24T01:35:54;6.32;;;4.20;;
31368;SDS011;18004;48.416;10.066;2023-04-24T01:38:20;10.55;;;7.20;;
31368;SDS011;18004;48.416;10.066;2023-04-24T01:40:46;14.75;;;8.45;;
31368;SDS011;18004;48.416;10.066;2023-04-24T01:43:12;16.30;;;8.75;;
31368;SDS011;18004;48.416;10.066;2023-04-24T01:45:38;15.20;;;8.27;;
31368;SDS011;18004;48.416;10.066;2023-04-24T01:48:04;16.17;;;8.95;;
31368;SDS011;18004;48.416;10.066;2023-04-24T01:50:30;13.00;;;7.50;;
31368;SDS011;18004;48.416;10.066;2023-04-24T01:52:56;14.70;;;7.35;;
31368;SDS011;18004;48.416;10.066;2023-04-24T01:55:22;4.55;;;4.00;;
31368;SDS011;18004;48.416;10.066;2023-04-24T01:57:48;2.60;;;1.98;;
31368;SDS011;18004;48.416;10.066;2023-04-24T02:00:14;1.27;;;1.00;;
31368;SDS011;18004;48.416;10.066;2023-04-24T02:02:40;2.00;;;0.90;;
31368;SDS011;18004;48.416;10.066;2023-04-24T02:05:07;0.70;;;0.68;;
31368;SDS011;18004;48.416;10.066;2023-04-24T02:07:33;0.80;;;0.50;;
31368;SDS011;18004;48.416;10.066;2023-04-24T02:09:59;0.77;;;0.52;;
31368;SDS011;18004;48.416;10.066;2023-04-24T02:12:25;1.05;;;0.68;;
31368;SDS011;18004;48.416;10.066;2023-04-24T02:14:50;1.95;;;0.60;;
31368;SDS011;18004;48.416;10.066;2023-04-24T02:17:16;0.65;;;0.65;;
31368;SDS011;18004;48.416;10.066;2023-04-24T02:19:44;1.60;;;0.75;;
31368;SDS011;18004;48.416;10.066;2023-04-24T02:22:10;0.60;;;0.60;;
31368;SDS011;18004;48.416;10.066;2023-04-24T02:24:37;1.38;;;0.80;;
31368;SDS011;18004;48.416;10.066;2023-04-24T02:27:03;1.08;;;0.75;;
31368;SDS011;18004;48.416;10.066;2023-04-24T02:29:28;2.05;;;0.60;;
31368;SDS011;18004;48.416;10.066;2023-04-24T02:31:54;3.50;;;0.40;;
31368;SDS011;18004;48.416;10.066;2023-04-24T02:34:20;0.60;;;0.60;;
31368;SDS011;18004;48.416;10.066;2023-04-24T02:36:46;0.93;;;0.55;;
31368;SDS011;18004;48.416;10.066;2023-04-24T02:39:11;0.75;;;0.57;;
31368;SDS011;18004;48.416;10.066;2023-04-24T02:41:38;1.73;;;0.70;;
31368;SDS011;18004;48.416;10.066;2023-04-24T02:44:04;0.80;;;0.70;;
31368;SDS011;18004;48.416;10.066;2023-04-24T02:46:29;0.52;;;0.45;;
31368;SDS011;18004;48.416;10.066;2023-04-24T02:48:55;0.47;;;0.47;;
31368;SDS011;18004;48.416;10.066;2023-04-24T02:51:21;3.00;;;0.65;;
31368;SDS011;18004;48.416;10.066;2023-04-24T02:53:47;1.13;;;0.60;;
31368;SDS011;18004;48.416;10.066;2023-04-24T02:56:13;0.50;;;0.50;;
31368;SDS011;18004;48.416;10.066;2023-04-24T02:58:38;0.40;;;0.30;;
31368;SDS011;18004;48.416;10.066;2023-04-24T03:01:04;1.38;;;0.60;;
31368;SDS011;18004;48.416;10.066;2023-04-24T03:03:30;2.60;;;0.40;;
31368;SDS011;18004;48.416;10.066;2023-04-24T03:05:56;1.13;;;0.50;;
31368;SDS011;18004;48.416;10.066;2023-04-24T03:08:22;1.23;;;0.57;;
31368;SDS011;18004;48.416;10.066;2023-04-24T03:10:48;0.57;;;0.55;;
31368;SDS011;18004;48.416;10.066;2023-04-24T03:13:15;1.20;;;0.70;;
31368;SDS011;18004;48.416;10.066;2023-04-24T03:15:41;1.55;;;0.50;;
31368;SDS011;18004;48.416;10.066;2023-04-24T03:18:07;0.50;;;0.50;;
31368;SDS011;18004;48.416;10.066;2023-04-24T03:20:33;0.93;;;0.50;;
31368;SDS011;18004;48.416;10.066;2023-04-24T03:22:58;0.90;;;0.60;;
31368;SDS011;18004;48.416;10.066;2023-04-24T03:25:24;0.63;;;0.63;;
31368;SDS011;18004;48.416;10.066;2023-04-24T03:27:50;0.60;;;0.50;;
31368;SDS011;18004;48.416;10.066;2023-04-24T03:30:16;2.22;;;0.50;;
31368;SDS011;18004;48.416;10.066;2023-04-24T03:32:42;1.15;;;0.65;;
31368;SDS011;18004;48.416;10.066;2023-04-24T03:35:08;4.35;;;0.85;;
31368;SDS011;18004;48.416;10.066;2023-04-24T03:37:34;3.33;;;0.70;;
31368;SDS011;18004;48.416;10.066;2023-04-24T03:40:00;0.88;;;0.75;;
31368;SDS011;18004;48.416;10.066;2023-04-24T03:42:26;1.85;;;0.60;;
31368;SDS011;18004;48.416;10.066;2023-04-24T03:44:52;1.13;;;0.98;;
31368;SDS011;18004;48.416;10.066;2023-04-24T03:47:18;1.67;;;0.70;;
31368;SDS011;18004;48.416;10.066;2023-04-24T03:49:43;1.42;;;0.82;;
31368;SDS011;18004;48.416;10.066;2023-04-24T03:52:09;1.15;;;0.70;;
31368;SDS011;18004;48.416;10.066;2023-04-24T03:54:35;0.60;;;0.50;;
31368;SDS011;18004;48.416;10.066;2023-04-24T03:57:01;2.92;;;0.93;;
31368;SDS011;18004;48.416;10.066;2023-04-24T03:59:27;1.10;;;0.98;;
31368;SDS011;18004;48.416;10.066;2023-04-24T04:01:52;1.20;;;0.90;;
31368;SDS011;18004;48.416;10.066;2023-04-24T04:04:18;1.80;;;0.75;;
31368;SDS011;18004;48.416;10.066;2023-04-24T04:06:44;1.33;;;0.77;;
31368;SDS011;18004;48.416;10.066;2023-04-24T04:09:11;1.10;;;1.00;;
31368;SDS011;18004;48.416;10.066;2023-04-24T04:11:37;2.25;;;1.10;;
31368;SDS011;18004;48.416;10.066;2023-04-24T04:14:03;0.80;;;0.80;;
31368;SDS011;18004;48.416;10.066;2023-04-24T04:16:29;1.42;;;0.90;;
31368;SDS011;18004;48.416;10.066;2023-04-24T04:18:54;1.13;;;0.80;;
31368;SDS011;18004;48.416;10.066;2023-04-24T04:21:20;0.68;;;0.68;;
31368;SDS011;18004;48.416;10.066;2023-04-24T04:23:46;2.15;;;0.98;;
31368;SDS011;18004;48.416;10.066;2023-04-24T04:26:13;1.35;;;0.90;;
31368;SDS011;18004;48.416;10.066;2023-04-24T04:28:39;3.08;;;0.90;;
31368;SDS011;18004;48.416;10.066;2023-04-24T04:31:05;1.77;;;0.90;;
31368;SDS011;18004;48.416;10.066;2023-04-24T04:33:33;5.47;;;0.70;;
31368;SDS011;18004;48.416;10.066;2023-04-24T04:35:59;0.93;;;0.50;;
31368;SDS011;18004;48.416;10.066;2023-04-24T04:38:25;4.57;;;0.77;;
31368;SDS011;18004;48.416;10.066;2023-04-24T04:40:55;0.77;;;0.60;;
31368;SDS011;18004;48.416;10.066;2023-04-24T04:43:24;4.75;;;0.88;;
31368;SDS011;18004;48.416;10.066;2023-04-24T04:45:50;1.00;;;0.57;;
31368;SDS011;18004;48.416;10.066;2023-04-24T04:48:17;0.98;;;0.68;;
31368;SDS011;18004;48.416;10.066;2023-04-24T04:50:44;0.55;;;0.50;;
31368;SDS011;18004;48.416;10.066;2023-04-24T04:53:10;0.65;;;0.55;;
31368;SDS011;18004;48.416;10.066;2023-04-24T04:55:36;1.23;;;0.43;;
31368;SDS011;18004;48.416;10.066;2023-04-24T04:58:02;2.03;;;0.47;;
31368;SDS011;18004;48.416;10.066;2023-04-24T05:00:28;1.08;;;0.60;;
31368;SDS011;18004;48.416;10.066;2023-04-24T05:02:59;0.65;;;0.55;;
31368;SDS011;18004;48.416;10.066;2023-04-24T05:05:25;7.60;;;0.93;;
31368;SDS011;18004;48.416;10.066;2023-04-24T05:07:51;1.80;;;0.50;;
31368;SDS011;18004;48.416;10.066;2023-04-24T05:10:17;0.65;;;0.47;;
31368;SDS011;18004;48.416;10.066;2023-04-24T05:12:42;1.25;;;0.80;;
31368;SDS011;18004;48.416;10.066;2023-04-24T05:15:08;0.40;;;0.40;;
31368;SDS011;18004;48.416;10.066;2023-04-24T05:17:34;4.47;;;0.52;;
31368;SDS011;18004;48.416;10.066;2023-04-24T05:20:01;1.38;;;0.60;;
31368;SDS011;18004;48.416;10.066;2023-04-24T05:22:30;1.27;;;0.50;;
31368;SDS011;18004;48.416;10.066;2023-04-24T05:24:56;0.60;;;0.32;;
31368;SDS011;18004;48.416;10.066;2023-04-24T05:27:22;0.65;;;0.40;;
31368;SDS011;18004;48.416;10.066;2023-04-24T05:29:49;0.73;;;0.40;;
31368;SDS011;18004;48.416;10.066;2023-04-24T05:32:15;0.57;;;0.30;;
31368;SDS011;18004;48.416;10.066;2023-04-24T05:34:40;0.30;;;0.30;;
31368;SDS011;18004;48.416;10.066;2023-04-24T05:37:06;7.38;;;0.50;;
31368;SDS011;18004;48.416;10.066;2023-04-24T05:39:35;0.73;;;0.20;;
31368;SDS011;18004;48.416;10.066;2023-04-24T05:42:01;0.40;;;0.40;;
31368;SDS011;18004;48.416;10.066;2023-04-24T05:44:28;0.28;;;0.22;;
31368;SDS011;18004;48.416;10.066;2023-04-24T05:46:54;0.90;;;0.20;;
31368;SDS011;18004;48.416;10.066;2023-04-24T05:49:21;0.45;;;0.25;;
31368;SDS011;18004;48.416;10.066;2023-04-24T05:51:46;0.68;;;0.30;;
31368;SDS011;18004;48.416;10.066;2023-04-24T05:54:12;0.30;;;0.20;;
31368;SDS011;18004;48.416;10.066;2023-04-24T05:56:38;1.60;;;0.50;;
31368;SDS011;18004;48.416;10.066;2023-04-24T05:59:04;4.70;;;0.60;;
31368;SDS011;18004;48.416;10.066;2023-04-24T06:01:30;0.20;;;0.10;;
31368;SDS011;18004;48.416;10.066;2023-04-24T06:03:56;0.52;;;0.30;;
31368;SDS011;18004;48.416;10.066;2023-04-24T06:06:23;0.30;;;0.30;;
31368;SDS011;18004;48.416;10.066;2023-04-24T06:08:49;1.80;;;0.90;;
31368;SDS011;18004;48.416;10.066;2023-04-24T06:11:15;1.05;;;1.05;;
31368;SDS011;18004;48.416;10.066;2023-04-24T06:13:41;1.25;;;0.88;;
31368;SDS011;18004;48.416;10.066;2023-04-24T06:16:07;1.55;;;0.60;;
31368;SDS011;18004;48.416;10.066;2023-04-24T06:18:33;6.10;;;1.27;;
31368;SDS011;18004;48.416;10.066;2023-04-24T06:20:58;1.63;;;1.27;;
31368;SDS011;18004;48.416;10.066;2023-04-24T06:23:25;2.25;;;1.73;;
31368;SDS011;18004;48.416;10.066;2023-04-24T06:25:50;2.05;;;0.60;;
31368;SDS011;18004;48.416;10.066;2023-04-24T06:28:16;1.15;;;0.77;;
31368;SDS011;18004;48.416;10.066;2023-04-24T06:30:42;1.27;;;0.68;;
31368;SDS011;18004;48.416;10.066;2023-04-24T06:33:08;1.65;;;0.90;;
31368;SDS011;18004;48.416;10.066;2023-04-24T06:35:35;2.22;;;1.13;;
31368;SDS011;18004;48.416;10.066;2023-04-24T06:38:01;2.50;;;1.40;;
31368;SDS011;18004;48.416;10.066;2023-04-24T06:40:27;5.95;;;0.60;;
31368;SDS011;18004;48.416;10.066;2023-04-24T06:42:52;1.05;;;0.52;;
31368;SDS011;18004;48.416;10.066;2023-04-24T06:45:18;0.82;;;0.50;;
31368;SDS011;18004;48.416;10.066;2023-04-24T06:47:44;0.60;;;0.52;;
31368;SDS011;18004;48.416;10.066;2023-04-24T06:50:10;0.73;;;0.60;;
31368;SDS011;18004;48.416;10.066;2023-04-24T06:52:36;1.40;;;0.57;;
31368;SDS011;18004;48.416;10.066;2023-04-24T06:55:03;2.30;;;0.57;;
31368;SDS011;18004;48.416;10.066;2023-04-24T06:57:29;0.32;;;0.32;;
31368;SDS011;18004;48.416;10.066;2023-04-24T06:59:55;0.32;;;0.30;;
31368;SDS011;18004;48.416;10.066;2023-04-24T07:02:21;0.50;;;0.50;;
31368;SDS011;18004;48.416;10.066;2023-04-24T07:04:47;0.85;;;0.40;;
31368;SDS011;18004;48.416;10.066;2023-04-24T07:07:13;0.55;;;0.43;;
31368;SDS011;18004;48.416;10.066;2023-04-24T07:09:39;0.65;;;0.50;;
31368;SDS011;18004;48.416;10.066;2023-04-24T07:12:10;0.30;;;0.30;;
31368;SDS011;18004;48.416;10.066;2023-04-24T07:14:37;1.17;;;0.68;;
31368;SDS011;18004;48.416;10.066;2023-04-24T07:17:03;1.13;;;0.77;;
31368;SDS011;18004;48.416;10.066;2023-04-24T07:19:30;3.28;;;1.00;;
31368;SDS011;18004;48.416;10.066;2023-04-24T07:21:56;7.03;;;3.03;;
31368;SDS011;18004;48.416;10.066;2023-04-24T07:24:23;4.93;;;3.45;;
31368;SDS011;18004;48.416;10.066;2023-04-24T07:26:50;4.85;;;2.33;;
31368;SDS011;18004;48.416;10.066;2023-04-24T07:29:17;4.70;;;2.40;;
31368;SDS011;18004;48.416;10.066;2023-04-24T07:31:42;4.35;;;2.53;;
31368;SDS011;18004;48.416;10.066;2023-04-24T07:34:09;1.67;;;1.20;;
31368;SDS011;18004;48.416;10.066;2023-04-24T07:36:34;1.38;;;1.20;;
31368;SDS011;18004;48.416;10.066;2023-04-24T07:39:00;0.80;;;0.77;;
31368;SDS011;18004;48.416;10.066;2023-04-24T07:41:26;1.77;;;0.88;;
31368;SDS011;18004;48.416;10.066;2023-04-24T07:43:53;2.15;;;1.13;;
31368;SDS011;18004;48.416;10.066;2023-04-24T07:46:19;3.50;;;0.40;;
31368;SDS011;18004;48.416;10.066;2023-04-24T07:48:45;1.33;;;0.55;;
31368;SDS011;18004;48.416;10.066;2023-04-24T07:51:13;1.25;;;0.80;;
31368;SDS011;18004;48.416;10.066;2023-04-24T07:53:40;4.32;;;0.70;;
31368;SDS011;18004;48.416;10.066;2023-04-24T07:56:06;0.40;;;0.40;;
31368;SDS011;18004;48.416;10.066;2023-04-24T07:58:32;1.63;;;0.60;;
31368;SDS011;18004;48.416;10.066;2023-04-24T08:00:58;1.80;;;0.52;;
31368;SDS011;18004;48.416;10.066;2023-04-24T08:03:26;1.13;;;0.57;;
31368;SDS011;18004;48.416;10.066;2023-04-24T08:05:52;1.38;;;0.80;;
31368;SDS011;18004;48.416;10.066;2023-04-24T08:08:19;0.82;;;0.70;;
31368;SDS011;18004;48.416;10.066;2023-04-24T08:10:46;1.77;;;0.88;;
31368;SDS011;18004;48.416;10.066;2023-04-24T08:13:12;2.33;;;1.25;;
31368;SDS011;18004;48.416;10.066;2023-04-24T08:15:38;1.73;;;0.85;;
31368;SDS011;18004;48.416;10.066;2023-04-24T08:18:04;1.17;;;0.90;;
31368;SDS011;18004;48.416;10.066;2023-04-24T08:20:30;1.20;;;0.90;;
31368;SDS011;18004;48.416;10.066;2023-04-24T08:22:56;1.75;;;0.90;;
31368;SDS011;18004;48.416;10.066;2023-04-24T08:25:22;2.40;;;1.05;;
31368;SDS011;18004;48.416;10.066;2023-04-24T08:27:49;1.88;;;0.90;;
31368;SDS011;18004;48.416;10.066;2023-04-24T08:30:16;0.93;;;0.73;;
31368;SDS011;18004;48.416;10.066;2023-04-24T08:32:42;1.30;;;0.73;;
31368;SDS011;18004;48.416;10.066;2023-04-24T08:35:08;0.52;;;0.40;;
31368;SDS011;18004;48.416;10.066;2023-04-24T08:37:34;0.88;;;0.47;;
31368;SDS011;18004;48.416;10.066;2023-04-24T08:40:01;2.00;;;0.60;;
31368;SDS011;18004;48.416;10.066;2023-04-24T08:42:44;1.38;;;0.57;;
31368;SDS011;18004;48.416;10.066;2023-04-24T08:45:13;1.58;;;0.70;;
31368;SDS011;18004;48.416;10.066;2023-04-24T08:47:39;1.20;;;0.52;;
31368;SDS011;18004;48.416;10.066;2023-04-24T08:50:06;2.55;;;0.60;;
31368;SDS011;18004;48.416;10.066;2023-04-24T08:52:33;4.72;;;1.00;;
31368;SDS011;18004;48.416;10.066;2023-04-24T08:55:00;1.13;;;0.50;;
31368;SDS011;18004;48.416;10.066;2023-04-24T08:57:26;0.63;;;0.30;;
31368;SDS011;18004;48.416;10.066;2023-04-24T08:59:53;1.63;;;0.32;;
31368;SDS011;18004;48.416;10.066;2023-04-24T09:02:20;0.40;;;0.30;;
31368;SDS011;18004;48.416;10.066;2023-04-24T09:04:47;0.30;;;0.30;;
31368;SDS011;18004;48.416;10.066;2023-04-24T09:07:14;3.08;;;0.50;;
31368;SDS011;18004;48.416;10.066;2023-04-24T09:09:41;1.33;;;0.40;;
31368;SDS011;18004;48.416;10.066;2023-04-24T09:12:07;0.90;;;0.52;;
31368;SDS011;18004;48.416;10.066;2023-04-24T09:14:35;0.77;;;0.50;;
31368;SDS011;18004;48.416;10.066;2023-04-24T09:17:04;0.68;;;0.60;;
31368;SDS011;18004;48.416;10.066;2023-04-24T09:19:31;0.77;;;0.40;;
31368;SDS011;18004;48.416;10.066;2023-04-24T09:21:57;0.40;;;0.40;;
31368;SDS011;18004;48.416;10.066;2023-04-24T09:24:23;0.65;;;0.40;;
31368;SDS011;18004;48.416;10.066;2023-04-24T09:26:49;1.25;;;0.65;;
31368;SDS011;18004;48.416;10.066;2023-04-24T09:29:23;0.73;;;0.47;;
31368;SDS011;18004;48.416;10.066;2023-04-24T09:31:49;1.33;;;0.50;;
31368;SDS011;18004;48.416;10.066;2023-04-24T09:34:18;2.50;;;0.43;;
31368;SDS011;18004;48.416;10.066;2023-04-24T09:36:50;0.32;;;0.32;;
31368;SDS011;18004;48.416;10.066;2023-04-24T09:39:16;1.10;;;0.45;;
31368;SDS011;18004;48.416;10.066;2023-04-24T09:41:48;0.30;;;0.30;;
31368;SDS011;18004;48.416;10.066;2023-04-24T09:44:19;0.60;;;0.40;;
31368;SDS011;18004;48.416;10.066;2023-04-24T09:46:50;3.42;;;0.55;;
31368;SDS011;18004;48.416;10.066;2023-04-24T09:49:24;0.93;;;0.57;;
31368;SDS011;18004;48.416;10.066;2023-04-24T09:52:04;0.30;;;0.30;;
31368;SDS011;18004;48.416;10.066;2023-04-24T09:54:33;0.47;;;0.40;;
31368;SDS011;18004;48.416;10.066;2023-04-24T09:57:01;2.80;;;0.30;;
31368;SDS011;18004;48.416;10.066;2023-04-24T09:59:28;0.47;;;0.40;;
31368;SDS011;18004;48.416;10.066;2023-04-24T10:01:54;0.65;;;0.30;;
31368;SDS011;18004;48.416;10.066;2023-04-24T10:04:23;0.73;;;0.32;;
31368;SDS011;18004;48.416;10.066;2023-04-24T10:06:52;0.38;;;0.38;;
31368;SDS011;18004;48.416;10.066;2023-04-24T10:09:19;1.30;;;0.57;;
31368;SDS011;18004;48.416;10.066;2023-04-24T10:11:47;0.20;;;0.20;;
31368;SDS011;18004;48.416;10.066;2023-04-24T10:14:15;0.75;;;0.30;;
31368;SDS011;18004;48.416;10.066;2023-04-24T10:16:43;2.03;;;0.32;;
31368;SDS011;18004;48.416;10.066;2023-04-24T10:19:12;0.22;;;0.22;;
31368;SDS011;18004;48.416;10.066;2023-04-24T10:21:41;0.32;;;0.20;;
31368;SDS011;18004;48.416;10.066;2023-04-24T10:24:14;0.28;;;0.25;;
31368;SDS011;18004;48.416;10.066;2023-04-24T10:26:42;0.50;;;0.50;;
31368;SDS011;18004;48.416;10.066;2023-04-24T10:29:10;0.43;;;0.43;;
31368;SDS011;18004;48.416;10.066;2023-04-24T10:31:38;0.40;;;0.22;;
31368;SDS011;18004;48.416;10.066;2023-04-24T10:34:05;0.30;;;0.30;;
31368;SDS011;18004;48.416;10.066;2023-04-24T10:36:35;1.92;;;0.77;;
31368;SDS011;18004;48.416;10.066;2023-04-24T10:39:05;1.05;;;0.20;;
31368;SDS011;18004;48.416;10.066;2023-04-24T10:41:36;1.48;;;0.32;;
31368;SDS011;18004;48.416;10.066;2023-04-24T10:44:06;0.50;;;0.40;;
31368;SDS011;18004;48.416;10.066;2023-04-24T10:46:33;0.32;;;0.32;;
31368;SDS011;18004;48.416;10.066;2023-04-24T10:49:00;1.13;;;0.22;;
31368;SDS011;18004;48.416;10.066;2023-04-24T10:54:26;1.02;;;0.30;;
31368;SDS011;18004;48.416;10.066;2023-04-24T10:56:53;0.50;;;0.30;;
31368;SDS011;18004;48.416;10.066;2023-04-24T10:59:38;0.10;;;0.10;;
31368;SDS011;18004;48.416;10.066;2023-04-24T11:02:04;0.73;;;0.52;;
31368;SDS011;18004;48.416;10.066;2023-04-24T11:04:33;3.33;;;0.38;;
31368;SDS011;18004;48.416;10.066;2023-04-24T11:07:00;0.32;;;0.32;;
31368;SDS011;18004;48.416;10.066;2023-04-24T11:09:27;0.88;;;0.55;;
31368;SDS011;18004;48.416;10.066;2023-04-24T11:12:05;2.58;;;0.50;;
31368;SDS011;18004;48.416;10.066;2023-04-24T11:17:33;0.32;;;0.30;;
31368;SDS011;18004;48.416;10.066;2023-04-24T11:20:16;1.15;;;0.50;;
31368;SDS011;18004;48.416;10.066;2023-04-24T11:22:42;4.85;;;0.60;;
31368;SDS011;18004;48.416;10.066;2023-04-24T11:25:09;0.60;;;0.60;;
31368;SDS011;18004;48.416;10.066;2023-04-24T11:27:43;0.30;;;0.30;;
31368;SDS011;18004;48.416;10.066;2023-04-24T11:30:09;0.68;;;0.47;;
31368;SDS011;18004;48.416;10.066;2023-04-24T11:32:36;0.20;;;0.20;;
31368;SDS011;18004;48.416;10.066;2023-04-24T11:37:41;0.20;;;0.20;;
31368;SDS011;18004;48.416;10.066;2023-04-24T11:40:09;0.40;;;0.40;;
31368;SDS011;18004;48.416;10.066;2023-04-24T11:42:36;0.68;;;0.40;;
31368;SDS011;18004;48.416;10.066;2023-04-24T11:47:40;0.52;;;0.40;;
31368;SDS011;18004;48.416;10.066;2023-04-24T11:50:08;1.77;;;0.50;;
31368;SDS011;18004;48.416;10.066;2023-04-24T11:52:36;0.50;;;0.40;;
31368;SDS011;18004;48.416;10.066;2023-04-24T11:55:03;0.32;;;0.32;;
31368;SDS011;18004;48.416;10.066;2023-04-24T11:57:31;0.60;;;0.50;;
31368;SDS011;18004;48.416;10.066;2023-04-24T12:00:02;0.90;;;0.50;;
31368;SDS011;18004;48.416;10.066;2023-04-24T12:02:30;0.52;;;0.28;;
31368;SDS011;18004;48.416;10.066;2023-04-24T12:04:55;1.15;;;0.50;;
31368;SDS011;18004;48.416;10.066;2023-04-24T12:07:22;1.15;;;0.50;;
31368;SDS011;18004;48.416;10.066;2023-04-24T12:09:58;1.65;;;0.40;;
31368;SDS011;18004;48.416;10.066;2023-04-24T12:12:27;0.30;;;0.30;;
31368;SDS011;18004;48.416;10.066;2023-04-24T12:14:54;1.10;;;0.38;;
31368;SDS011;18004;48.416;10.066;2023-04-24T12:17:25;0.80;;;0.38;;
31368;SDS011;18004;48.416;10.066;2023-04-24T12:19:56;0.50;;;0.40;;
31368;SDS011;18004;48.416;10.066;2023-04-24T12:22:24;0.85;;;0.50;;
31368;SDS011;18004;48.416;10.066;2023-04-24T12:25:02;0.20;;;0.20;;
31368;SDS011;18004;48.416;10.066;2023-04-24T12:27:33;0.68;;;0.30;;
31368;SDS011;18004;48.416;10.066;2023-04-24T12:30:00;1.20;;;0.32;;
31368;SDS011;18004;48.416;10.066;2023-04-24T12:32:27;0.32;;;0.30;;
31368;SDS011;18004;48.416;10.066;2023-04-24T12:34:53;0.70;;;0.28;;
31368;SDS011;18004;48.416;10.066;2023-04-24T12:37:20;0.28;;;0.22;;
31368;SDS011;18004;48.416;10.066;2023-04-24T12:42:32;0.82;;;0.40;;
31368;SDS011;18004;48.416;10.066;2023-04-24T12:45:00;0.68;;;0.30;;
31368;SDS011;18004;48.416;10.066;2023-04-24T12:47:28;0.40;;;0.20;;
31368;SDS011;18004;48.416;10.066;2023-04-24T12:49:54;0.65;;;0.30;;
31368;SDS011;18004;48.416;10.066;2023-04-24T12:52:21;0.30;;;0.30;;
31368;SDS011;18004;48.416;10.066;2023-04-24T12:54:49;0.35;;;0.20;;
31368;SDS011;18004;48.416;10.066;2023-04-24T12:57:15;1.27;;;0.20;;
31368;SDS011;18004;48.416;10.066;2023-04-24T12:59:43;1.27;;;0.30;;
31368;SDS011;18004;48.416;10.066;2023-04-24T13:02:09;2.42;;;0.47;;
31368;SDS011;18004;48.416;10.066;2023-04-24T13:04:35;3.80;;;0.43;;
31368;SDS011;18004;48.416;10.066;2023-04-24T13:07:01;1.65;;;0.47;;
31368;SDS011;18004;48.416;10.066;2023-04-24T13:09:27;0.38;;;0.20;;
31368;SDS011;18004;48.416;10.066;2023-04-24T13:11:53;1.60;;;0.40;;
31368;SDS011;18004;48.416;10.066;2023-04-24T13:14:19;0.25;;;0.25;;
31368;SDS011;18004;48.416;10.066;2023-04-24T13:16:45;0.40;;;0.30;;
31368;SDS011;18004;48.416;10.066;2023-04-24T13:19:11;0.20;;;0.20;;
31368;SDS011;18004;48.416;10.066;2023-04-24T13:21:36;0.20;;;0.20;;
31368;SDS011;18004;48.416;10.066;2023-04-24T13:24:02;1.13;;;0.30;;
31368;SDS011;18004;48.416;10.066;2023-04-24T13:26:30;0.20;;;0.20;;
31368;SDS011;18004;48.416;10.066;2023-04-24T13:28:55;0.40;;;0.30;;
31368;SDS011;18004;48.416;10.066;2023-04-24T13:31:21;0.35;;;0.20;;
31368;SDS011;18004;48.416;10.066;2023-04-24T13:33:47;0.98;;;0.30;;
31368;SDS011;18004;48.416;10.066;2023-04-24T13:36:13;1.75;;;0.55;;
31368;SDS011;18004;48.416;10.066;2023-04-24T13:38:39;0.30;;;0.30;;
31368;SDS011;18004;48.416;10.066;2023-04-24T13:41:04;0.35;;;0.20;;
31368;SDS011;18004;48.416;10.066;2023-04-24T13:43:30;3.83;;;0.30;;
31368;SDS011;18004;48.416;10.066;2023-04-24T13:45:56;6.18;;;0.40;;
31368;SDS011;18004;48.416;10.066;2023-04-24T13:48:22;0.20;;;0.20;;
31368;SDS011;18004;48.416;10.066;2023-04-24T13:50:47;2.35;;;0.40;;
31368;SDS011;18004;48.416;10.066;2023-04-24T13:53:14;0.20;;;0.20;;
31368;SDS011;18004;48.416;10.066;2023-04-24T13:55:40;1.88;;;0.20;;
31368;SDS011;18004;48.416;10.066;2023-04-24T13:58:06;0.80;;;0.30;;
31368;SDS011;18004;48.416;10.066;2023-04-24T14:00:32;0.38;;;0.25;;
31368;SDS011;18004;48.416;10.066;2023-04-24T14:02:58;0.63;;;0.38;;
31368;SDS011;18004;48.416;10.066;2023-04-24T14:05:24;1.67;;;0.28;;
31368;SDS011;18004;48.416;10.066;2023-04-24T14:07:50;1.08;;;0.20;;
31368;SDS011;18004;48.416;10.066;2023-04-24T14:10:16;0.10;;;0.10;;
31368;SDS011;18004;48.416;10.066;2023-04-24T14:12:42;2.38;;;0.40;;
31368;SDS011;18004;48.416;10.066;2023-04-24T14:15:08;0.28;;;0.20;;
31368;SDS011;18004;48.416;10.066;2023-04-24T14:17:37;0.57;;;0.30;;
31368;SDS011;18004;48.416;10.066;2023-04-24T14:20:03;0.20;;;0.20;;
31368;SDS011;18004;48.416;10.066;2023-04-24T14:22:30;0.22;;;0.20;;
31368;SDS011;18004;48.416;10.066;2023-04-24T14:24:55;0.30;;;0.30;;
31368;SDS011;18004;48.416;10.066;2023-04-24T14:27:21;0.95;;;0.40;;
31368;SDS011;18004;48.416;10.066;2023-04-24T14:29:47;0.35;;;0.25;;
31368;SDS011;18004;48.416;10.066;2023-04-24T14:32:13;0.25;;;0.25;;
31368;SDS011;18004;48.416;10.066;2023-04-24T14:34:40;1.00;;;0.40;;
31368;SDS011;18004;48.416;10.066;2023-04-24T14:37:06;0.80;;;0.40;;
31368;SDS011;18004;48.416;10.066;2023-04-24T14:39:32;0.35;;;0.35;;
31368;SDS011;18004;48.416;10.066;2023-04-24T14:41:58;0.35;;;0.30;;
31368;SDS011;18004;48.416;10.066;2023-04-24T14:44:26;0.30;;;0.28;;